AirNav   Air Wisconsin Up To $57,000 Bonus
 
 1598 users online  

K63 Council Grove Municipal Airport
Council Grove, Kansas, USA

GOING TO COUNCIL GROVE?


FAA INFORMATION EFFECTIVE 15 JULY 2021

Location

FAA Identifier: K63
Lat/Long: 38-40-35.3000N 096-34-21.9000W
38-40.588333N 096-34.365000W
38.6764722,-96.5727500
(estimated)
Elevation: 1409 ft. / 429.5 m (surveyed)
Variation: 06E (1985)
From city: 3 miles NW of COUNCIL GROVE, KS
Time zone: UTC -5 (UTC -6 during Standard Time)
Zip code: 66846

Airport Operations

Airport use: Open to the public
Activation date: 10/1947
Control tower: no
ARTCC: KANSAS CITY CENTER
FSS: WICHITA FLIGHT SERVICE STATION
NOTAMs facility: ICT (NOTAM-D service available)
Attendance: UNATNDD
Wind indicator: no
Segmented circle: no

Airport Communications

CTAF: 122.9

Nearby radio navigation aids

VOR radial/distance  VOR name  Freq  Var
FRIr137/(22.2)FORT RILEY VOR109.4006E
MHKr167/28.5MANHATTAN VOR/DME110.2004E
EMPr311/30.8EMPORIA VORTAC112.8008E

 
NDB name  Hdg/Dist  Freq  Var  ID
HERINGTON089/11.240706EHRU .... .-. ..-

Airport Services

Parking: tiedowns
Airframe service: NONE
Powerplant service: NONE
Bottled oxygen: NONE
Bulk oxygen: NONE

Runway Information

Runway 4/22

Dimensions: 1845 x 120 ft. / 562 x 37 m
Surface: turf, in good condition
RY 04/22 VERY SOFT & SLICK DURING PERIODS OF INCLEMENT WEATHER.
Runway edge markings: RWY 22 THLD MARKED WITH ORANGE PAINTED BARRELS.
RUNWAY 4  RUNWAY 22
Latitude: 38-40.478833N38-40.689167N
Longitude: 096-34.490500W096-34.210333W
Traffic pattern: leftleft
Obstructions: 10 ft. trees, 185 ft. from runway, 40 ft. right of centerline, 18:1 slope to clear
RY 04 4FT FENCE ACROSS RY CTRL WITH SMALL TREES LEFT AND RIGHT.
10 ft. pline, marked, 350 ft. from runway, 35:1 slope to clear

Runway 12/30

Dimensions: 1690 x 75 ft. / 515 x 23 m
Surface: turf, in good condition
RY 12/30 VERY SOFT & SLICK DURING PERIODS OF INCLEMENT WEATHER.
Runway edge markings: RY 30 THLD MKD WITH ORANGE PAINTED BARRELS.
RUNWAY 12  RUNWAY 30
Latitude: 38-40.660000N38-40.526667N
Longitude: 096-34.537167W096-34.225167W
Traffic pattern: leftleft
Obstructions: 14 ft. trees, 12 ft. from runway
4 FT FENCE ACROSS RY CTRL WITH SMALL TREES LEFT AND RIGHT.
21 ft. trees, 513 ft. from runway, 24:1 slope to clear

Airport Ownership and Management from official FAA records

Ownership: Publicly-owned
Owner: CITY OF COUNCIL GROVE
205 UNION ST.
COUNCIL GROVE, KS 66846
Phone 620-767-5417
Manager: JEFF BARBO
205 UNION ST.
COUNCIL GROVE, KS 66846
Phone (785) 466-6780

Airport Operational Statistics

Aircraft operations: avg 33/month *
75% transient general aviation
25% military
* for 12-month period ending 11 September 2019

Additional Remarks

RDO-CTLD MODEL ACFT ACTVTY ON ARPT WKENDS EVES & HOLS.
FOR CD CTC KANSAS CITY ARTCC AT 913-254-8508.

Instrument Procedures

There are no published instrument procedures at K63.

Some nearby airports with instrument procedures:

KHRU - Herington Regional Airport (11 nm W)
KFRI - Marshall Army Airfield (24 nm N)
3JC - Freeman Field Airport (25 nm NW)
KEMP - Emporia Municipal Airport (27 nm SE)
KMHK - Manhattan Regional Airport (28 nm N)
 
Loc | Ops | Rwys | IFR | FBO | Links
Com | Nav | Svcs | Stats | Notes
Area around K63 (Council Grove Municipal Airport)
 
Road maps at: MapQuest Bing Google
 
Aerial photo
WARNING: Photo may not be current or correct
Aerial photo of K63 (Council Grove Municipal Airport)
Photo by Eric Jaderborg
Photo taken 02-Oct-2011
looking northeast.

Do you have a better or more recent aerial photo of Council Grove Municipal Airport that you would like to share? If so, please send us your photo.

 
Sectional chart

 
Airport distance calculator
Flying to Council Grove Municipal Airport? Find the distance to fly.

From to K63

Sunrise and sunset
Times for 05-Aug-2021
 Local
(UTC-5)
 Zulu
(UTC)
Morning civil twilight06:0311:03
Sunrise06:3211:32
Sunset20:3201:32
Evening civil twilight21:0102:01

Current date and time
Zulu (UTC)  05-Aug-2021 16:03:27
Local (UTC-5)  05-Aug-2021 11:03:27
 
METAR
KFRI 
23nm NW 
051556Z AUTO 23004KT 10SM FEW180 26/19 A3004 RMK AO2 SLP162 T02610185
KEMP 
27nm SE 
051553Z AUTO 20010KT 8SM CLR 27/18 A3007 RMK AO2 SLP171 T02720178
KMHK 
28nm N 
051552Z 23006KT 9SM HZ CLR 26/18 A3003 RMK AO2 SLP160 T02610178
KUKL 
46nm SE 
051535Z AUTO 20009KT 10SM VCTS SCT060 BKN110 22/16 A3009 RMK AO2 LTG DSNT SE T02220162
KFOE 
46nm E 
051553Z 22010G17KT 10SM FEW120 26/18 A3003 RMK AO2 SLP159 T02560183
TAF
KFRI 
23nm NW 
051300Z 0513/0619 23006KT 9999 SCT120 510006 QNH2997INS BECMG 0520/0521 22012G18KT 9999 BKN100 QNH2990INS BECMG 0601/0602 18009KT 9999 SKC QNH2990INS TX31/0521Z TN18/0612Z
KMHK 
28nm N 
051120Z 0512/0612 22008KT P6SM BKN150 FM052200 20008KT P6SM SCT250
NOTAMs
Click for the latest NOTAMs
NOTAMs are issued by the DoD/FAA and will open in a separate window not controlled by AirNav.

 

 
 

Would you like to see your business listed on this page?

 If your business provides an interesting product or service to pilots, flight crews, aircraft, or users of the Council Grove Municipal Airport, you should consider listing it here.  To start the listing process, click on the button below
 
Add a business
 

Other Pages about Council Grove Municipal Airport

Update a link
 
Copyright © AirNav, LLC. All rights reserved. Privacy Policy  Contact